Etusivu
METAR-TAF:

METAR-TAF

Lentoasemat :

Mafikeng, Etelä-Afrikka

Leveyspiiri: 25-47S, Pituuspiiri: 025-32E, korkeus merenpinnasta: 1281 m

Tämänhetkinen sää

Tämä raportti tehtiin 51 minuuttia sitten, kello 22.00 UTC
Tuuli 8 kn koillisesta
Lämpötila 8°C
Kosteus 29%
Ilmanpaine 1023 hPa

METAR: FAMM 172200Z AUTO 04008KT //// // ////// 08/M09 Q1023

Aika: 00:51 (22:51 UTC)

Sääennuste

Tämä raportti tehtiin 13 tuntia ja 51 minuuttia sitten, kello 09.00 UTC
Ennuste voimassa 17. päivästä klo 10 UTC - 17. päivään klo 18 UTC
Tuuli 3 kn eri suunnista
Näkyvyys 10 km tai enemmän
ei pilviä alle 1500 m:ssä eikä cumulonimbus-pilviä

TAF: FAMM 170900Z 1710/1718 VRB03KT CAVOK TX25/1712Z TN15/1718Z

Säähavainnot ja -ennusteet yli 4000 lentoasemalta (METAR- ja TAF-raportit).

Käytössä olevat sääasemat on merkitty karttaan keltaisilla ja punaisilla pisteillä.

Aseta hiiri pisteen päälle nähdäksesi sääaseman nimen.

Klikkaa sitten nähdäksesi säähavainnot ja -ennusteet.

Kartan vaihtaminen: klikkaa mustalla rastilla varustettuja vihreitä pisteitä, niin voit zoomata sisään; viivalla varustettua vihreää pistettä, niin voit zoomata ulos tai vihreitä nuolia, niin pääset viereisille kartoille.


METAR-TAF: